Time;durP1;ratioP1;P1;durP2;ratioP2;P2;SDS_P1;SDS_P2;PMS_P1;PMS_P2;Temp;Humidity;BMP_temperature;BMP_pressure;BME280_temperature;BME280_humidity;BME280_pressure;Samples;Min_cycle;Max_cycle;Signal;HPM_P1;HPM_P2
2023/09/16 00:00:34;;;;;;;13.45;9.68;;;;;;;17.00;100.00;100703.41;5081768;28;20048;-78
2023/09/16 00:03:02;;;;;;;10.32;8.98;;;;;;;16.98;100.00;100704.59;5076494;28;20132;-78
2023/09/16 00:05:30;;;;;;;11.20;9.00;;;;;;;16.95;100.00;100705.00;5076812;28;20048;-78
2023/09/16 00:07:57;;;;;;;14.27;9.07;;;;;;;16.94;100.00;100703.34;5082909;28;20418;-79
2023/09/16 00:10:24;;;;;;;12.93;8.73;;;;;;;16.94;100.00;100703.34;5082311;28;20048;-81
2023/09/16 00:12:51;;;;;;;10.80;8.88;;;;;;;16.82;100.00;100693.34;5086315;28;20055;-80
2023/09/16 00:15:17;;;;;;;10.57;8.48;;;;;;;16.81;100.00;100696.97;5086304;28;20145;-80
2023/09/16 00:17:44;;;;;;;13.15;8.82;;;;;;;16.76;100.00;100696.75;5086140;28;20048;-80
2023/09/16 00:20:15;;;;;;;11.65;9.48;;;;;;;16.71;100.00;100693.06;5087043;28;20083;-79
2023/09/16 00:22:47;;;;;;;11.02;9.30;;;;;;;16.77;100.00;100692.28;5086469;28;20052;-80
2023/09/16 00:25:14;;;;;;;13.82;9.27;;;;;;;16.73;100.00;100691.84;5089438;28;20051;-80
2023/09/16 00:27:40;;;;;;;12.90;9.35;;;;;;;16.71;100.00;100693.88;5081599;28;20175;-80
2023/09/16 00:30:08;;;;;;;11.70;9.40;;;;;;;16.73;100.00;100691.03;5082911;28;20083;-80
2023/09/16 00:32:35;;;;;;;13.57;9.45;;;;;;;16.66;100.00;100690.19;5080834;28;20054;-80
2023/09/16 00:35:04;;;;;;;11.68;9.95;;;;;;;16.57;100.00;100687.66;5087174;28;20071;-80
2023/09/16 00:37:31;;;;;;;15.07;9.85;;;;;;;16.61;100.00;100690.72;5083091;28;20060;-80
2023/09/16 00:39:59;;;;;;;12.75;10.20;;;;;;;16.56;100.00;100690.47;5084926;28;20120;-81
2023/09/16 00:42:26;;;;;;;16.48;9.95;;;;;;;16.46;100.00;100695.31;5092259;28;20095;-81
2023/09/16 00:44:53;;;;;;;11.43;9.70;;;;;;;16.50;100.00;100693.94;5097408;28;20045;-81
2023/09/16 00:47:19;;;;;;;11.05;9.80;;;;;;;16.51;100.00;100692.91;5088375;28;20052;-81
2023/09/16 00:49:55;;;;;;;11.90;9.48;;;;;;;16.53;100.00;100688.25;5090647;28;20053;-82
2023/09/16 00:52:26;;;;;;;13.90;10.10;;;;;;;16.56;100.00;100691.31;5082077;28;20049;-81
2023/09/16 00:55:01;;;;;;;13.35;10.07;;;;;;;16.58;100.00;100688.47;5089169;28;20053;-82
2023/09/16 00:57:37;;;;;;;13.52;9.52;;;;;;;16.53;100.00;100680.34;5080621;28;20108;-80
2023/09/16 01:00:08;;;;;;;10.63;9.13;;;;;;;16.62;100.00;100695.00;5086759;28;20049;-79
2023/09/16 01:02:35;;;;;;;13.32;9.27;;;;;;;16.56;100.00;100683.38;5087839;28;20143;-79
2023/09/16 01:05:04;;;;;;;11.40;8.93;;;;;;;16.62;100.00;100679.16;5090791;28;20085;-79
2023/09/16 01:07:31;;;;;;;12.68;9.38;;;;;;;16.61;100.00;100685.44;5088916;28;20094;-79
2023/09/16 01:09:59;;;;;;;12.68;9.35;;;;;;;16.62;100.00;100689.72;5089365;28;20206;-79
2023/09/16 01:12:26;;;;;;;15.45;10.07;;;;;;;16.62;100.00;100683.63;5089101;28;20052;-79
2023/09/16 01:14:54;;;;;;;11.85;9.60;;;;;;;16.78;100.00;100688.63;5087439;28;20071;-79
2023/09/16 01:17:26;;;;;;;13.00;8.93;;;;;;;16.71;100.00;100671.91;5077873;28;20048;-79
2023/09/16 01:20:00;;;;;;;9.90;8.63;;;;;;;16.69;100.00;100666.81;5086589;28;20105;-79
2023/09/16 01:22:28;;;;;;;10.45;8.63;;;;;;;16.60;100.00;100660.84;5074960;28;20060;-79
2023/09/16 01:24:56;;;;;;;10.10;8.60;;;;;;;16.78;100.00;100686.00;5085380;28;20138;-78
2023/09/16 01:27:24;;;;;;;12.20;9.35;;;;;;;16.78;100.00;100683.34;5084435;28;20074;-79
2023/09/16 01:29:53;;;;;;;12.60;8.90;;;;;;;16.68;100.00;100675.75;5088236;28;20079;-79
2023/09/16 01:32:26;;;;;;;11.07;8.93;;;;;;;16.66;100.00;100685.72;5086530;28;20528;-80
2023/09/16 01:34:57;;;;;;;10.32;8.75;;;;;;;16.64;100.00;100671.88;5084259;28;20135;-79
2023/09/16 01:37:26;;;;;;;10.38;8.10;;;;;;;16.63;100.00;100678.13;5088198;28;20110;-78
2023/09/16 01:39:57;;;;;;;11.07;8.50;;;;;;;16.63;100.00;100678.13;5084843;28;20078;-81
2023/09/16 01:42:27;;;;;;;14.55;9.40;;;;;;;16.55;100.00;100678.28;5080379;28;20068;-79
2023/09/16 01:44:54;;;;;;;10.13;8.88;;;;;;;16.54;100.00;100674.81;5089694;28;20080;-80
2023/09/16 01:47:21;;;;;;;11.32;8.05;;;;;;;16.48;100.00;100669.53;5069853;28;20080;-80
2023/09/16 01:49:47;;;;;;;9.80;7.82;;;;;;;16.44;100.00;100663.81;5084883;28;20052;-79
2023/09/16 01:52:16;;;;;;;9.95;8.40;;;;;;;16.41;100.00;100661.56;5094032;28;20076;-81
2023/09/16 01:54:42;;;;;;;10.38;8.63;;;;;;;16.40;100.00;100667.03;5089331;28;20052;-80
2023/09/16 01:57:09;;;;;;;11.40;8.38;;;;;;;16.37;100.00;100662.13;5088507;28;20076;-80
2023/09/16 01:59:37;;;;;;;10.82;7.90;;;;;;;16.35;100.00;100666.78;5088509;28;20040;-79
2023/09/16 02:02:04;;;;;;;9.70;8.20;;;;;;;16.34;100.00;100667.81;5085585;28;20076;-79
2023/09/16 02:04:30;;;;;;;11.02;7.50;;;;;;;16.34;100.00;100665.16;5087849;28;20084;-79
2023/09/16 02:06:57;;;;;;;10.13;8.20;;;;;;;16.31;100.00;100661.06;5089077;28;20072;-80
2023/09/16 02:09:23;;;;;;;9.75;7.43;;;;;;;16.34;100.00;100662.53;5086960;28;20083;-79
2023/09/16 02:11:50;;;;;;;10.27;7.80;;;;;;;16.32;100.00;100669.81;5087328;28;20132;-79
2023/09/16 02:14:19;;;;;;;9.85;7.50;;;;;;;16.42;100.00;100667.66;5086696;28;20052;-79
2023/09/16 02:16:47;;;;;;;10.07;7.47;;;;;;;16.33;100.00;100666.16;5086546;28;20429;-79
2023/09/16 02:19:13;;;;;;;11.60;7.80;;;;;;;16.38;100.00;100661.13;5086846;28;20132;-79
2023/09/16 02:21:40;;;;;;;10.70;7.78;;;;;;;16.26;100.00;100661.66;5090607;28;20045;-79
2023/09/16 02:24:07;;;;;;;12.98;7.38;;;;;;;16.27;100.00;100659.81;5085960;28;20044;-79
2023/09/16 02:26:33;;;;;;;10.85;7.43;;;;;;;16.22;100.00;100663.03;5086224;28;20458;-79
2023/09/16 02:29:00;;;;;;;11.90;7.63;;;;;;;16.22;100.00;100664.88;5086080;28;20087;-79
2023/09/16 02:31:27;;;;;;;9.43;7.75;;;;;;;16.17;100.00;100654.88;5084782;28;20087;-79
2023/09/16 02:33:57;;;;;;;10.93;7.55;;;;;;;16.24;100.00;100657.56;5086405;28;20051;-79
2023/09/16 02:36:24;;;;;;;12.05;8.20;;;;;;;16.15;100.00;100662.16;5089263;28;20056;-80
2023/09/16 02:38:52;;;;;;;10.85;7.35;;;;;;;16.21;100.00;100665.88;5088319;28;20075;-79
2023/09/16 02:41:19;;;;;;;8.10;7.25;;;;;;;16.15;100.00;100662.16;5088117;28;20044;-80
2023/09/16 02:43:46;;;;;;;10.68;7.82;;;;;;;16.40;100.00;100667.03;5087987;28;20044;-80
2023/09/16 02:46:13;;;;;;;12.55;7.25;;;;;;;16.33;100.00;100663.53;5088701;28;20079;-80
2023/09/16 02:48:40;;;;;;;9.50;7.38;;;;;;;16.30;100.00;100658.63;5087543;28;20044;-79
2023/09/16 02:51:09;;;;;;;10.50;7.35;;;;;;;16.27;100.00;100658.00;5087216;28;20048;-82
2023/09/16 02:53:36;;;;;;;8.55;6.85;;;;;;;16.37;100.00;100664.78;5086977;28;20052;-78
2023/09/16 02:56:03;;;;;;;8.77;6.85;;;;;;;16.40;100.00;100653.84;5086900;28;20068;-80
2023/09/16 02:58:30;;;;;;;11.13;7.38;;;;;;;16.41;100.00;100653.63;5086804;28;20045;-80
2023/09/16 03:00:56;;;;;;;8.90;7.43;;;;;;;16.49;100.00;100660.59;5086916;28;20079;-80
2023/09/16 03:03:23;;;;;;;9.82;7.00;;;;;;;16.41;100.00;100658.09;5085870;28;20434;-79
2023/09/16 03:05:49;;;;;;;8.80;7.40;;;;;;;16.42;100.00;100657.09;5086867;28;20056;-80
2023/09/16 03:08:19;;;;;;;7.95;6.90;;;;;;;16.46;100.00;100653.06;5084778;28;20072;-80
2023/09/16 03:10:46;;;;;;;9.05;7.10;;;;;;;16.50;100.00;100649.03;5079836;28;20063;-80
2023/09/16 03:13:12;;;;;;;9.27;6.88;;;;;;;16.46;99.62;100642.50;5085007;28;20072;-80
2023/09/16 03:15:45;;;;;;;9.77;6.97;;;;;;;16.46;99.25;100647.78;5084845;28;20084;-80
2023/09/16 03:18:12;;;;;;;9.00;6.70;;;;;;;16.23;99.41;100630.34;5086712;28;20040;-80
2023/09/16 03:20:38;;;;;;;10.40;6.65;;;;;;;16.20;99.68;100643.13;5087074;28;20546;-79
2023/09/16 03:23:05;;;;;;;8.02;6.30;;;;;;;16.15;100.00;100643.69;5087035;28;20424;-79
2023/09/16 03:25:33;;;;;;;9.00;7.00;;;;;;;16.09;100.00;100646.28;5082660;28;20048;-79
2023/09/16 03:28:00;;;;;;;10.40;6.95;;;;;;;16.02;100.00;100643.63;5082851;28;20052;-80
2023/09/16 03:30:27;;;;;;;8.63;7.28;;;;;;;16.04;100.00;100649.53;5084782;28;20461;-80
2023/09/16 03:32:54;;;;;;;9.45;6.95;;;;;;;15.90;100.00;100635.41;5085148;28;20103;-79
2023/09/16 03:35:24;;;;;;;10.00;7.38;;;;;;;15.84;100.00;100632.69;5081016;28;20083;-79
2023/09/16 03:37:51;;;;;;;8.70;6.40;;;;;;;15.80;100.00;100642.81;5079345;28;20464;-79
2023/09/16 03:40:17;;;;;;;10.48;7.13;;;;;;;15.78;100.00;100644.81;5073538;28;20041;-79
2023/09/16 03:42:45;;;;;;;8.40;7.28;;;;;;;15.82;100.00;100642.63;5073993;28;20124;-79
2023/09/16 03:45:12;;;;;;;9.18;6.82;;;;;;;15.79;100.00;100630.63;5073708;28;20068;-78
2023/09/16 03:47:39;;;;;;;10.05;7.10;;;;;;;15.74;100.00;100642.75;5076825;28;20060;-80
2023/09/16 03:50:07;;;;;;;9.30;7.72;;;;;;;15.74;100.00;100642.75;5076602;28;20127;-79
2023/09/16 03:52:33;;;;;;;10.73;7.78;;;;;;;15.63;100.00;100637.97;5075405;28;20550;-79
2023/09/16 03:55:02;;;;;;;9.20;7.38;;;;;;;15.65;100.00;100636.78;5074416;28;20098;-79
2023/09/16 03:57:29;;;;;;;8.27;7.07;;;;;;;15.61;100.00;100632.88;5074071;28;20052;-79
2023/09/16 03:59:57;;;;;;;11.00;7.93;;;;;;;15.56;100.00;100624.72;5074250;28;20104;-79
2023/09/16 04:02:24;;;;;;;9.85;7.32;;;;;;;15.55;100.00;100638.91;5073427;28;20207;-79
2023/09/16 04:04:51;;;;;;;8.45;7.20;;;;;;;15.52;100.00;100631.38;5074148;28;20123;-79
2023/09/16 04:07:17;;;;;;;9.65;7.07;;;;;;;15.57;100.00;100627.19;5076204;28;20135;-79
2023/09/16 04:09:44;;;;;;;7.95;7.00;;;;;;;15.52;100.00;100626.09;5072872;28;20517;-80
2023/09/16 04:12:10;;;;;;;10.90;7.55;;;;;;;15.42;100.00;100629.03;5072761;28;20052;-79
2023/09/16 04:14:37;;;;;;;9.57;7.22;;;;;;;15.36;100.00;100631.59;5072887;28;20075;-79
2023/09/16 04:17:05;;;;;;;9.98;7.10;;;;;;;15.37;100.00;100630.59;5072163;28;20083;-79
2023/09/16 04:19:32;;;;;;;11.90;7.78;;;;;;;15.35;100.00;100632.59;5072875;28;20467;-79
2023/09/16 04:21:58;;;;;;;9.70;7.25;;;;;;;15.38;100.00;100633.03;5080893;28;20132;-79
2023/09/16 04:24:25;;;;;;;9.20;6.82;;;;;;;15.41;100.00;100627.41;5077258;28;20127;-78
2023/09/16 04:26:51;;;;;;;10.90;7.30;;;;;;;15.40;100.00;100628.41;5077029;28;20095;-79
2023/09/16 04:29:18;;;;;;;9.38;7.63;;;;;;;15.37;100.00;100626.13;5085384;28;20070;-77
2023/09/16 04:31:45;;;;;;;11.68;7.38;;;;;;;15.32;100.00;100631.16;5079280;28;20052;-77
2023/09/16 04:34:14;;;;;;;11.50;7.35;;;;;;;15.30;100.00;100629.72;5079151;28;20486;-77
2023/09/16 04:36:41;;;;;;;8.45;7.30;;;;;;;15.28;100.00;100633.34;5075241;28;20475;-78
2023/09/16 04:39:08;;;;;;;9.27;7.30;;;;;;;15.28;100.00;100632.53;5074109;28;20055;-78
2023/09/16 04:41:35;;;;;;;9.73;7.95;;;;;;;15.22;100.00;100623.53;5074091;28;20060;-78
2023/09/16 04:44:02;;;;;;;10.57;7.40;;;;;;;15.18;100.00;100624.91;5073549;28;20530;-78
2023/09/16 04:46:29;;;;;;;8.43;7.57;;;;;;;15.13;100.00;100634.38;5073924;28;20434;-77
2023/09/16 04:48:56;;;;;;;8.55;7.65;;;;;;;15.10;100.00;100625.06;5074264;28;20052;-78
2023/09/16 04:51:24;;;;;;;10.27;7.80;;;;;;;15.09;100.00;100633.16;5074593;28;20052;-78
2023/09/16 04:53:50;;;;;;;9.48;7.43;;;;;;;15.05;100.00;100637.16;5075634;28;20131;-78
2023/09/16 04:56:17;;;;;;;11.43;7.60;;;;;;;15.05;100.00;100626.59;5075295;28;20056;-79
2023/09/16 04:58:44;;;;;;;10.52;7.82;;;;;;;15.03;100.00;100620.69;5076218;28;20060;-78
2023/09/16 05:01:12;;;;;;;10.30;8.02;;;;;;;15.07;100.00;100621.97;5074488;28;20098;-78
2023/09/16 05:03:39;;;;;;;8.93;7.63;;;;;;;15.05;100.00;100626.59;5075304;28;20056;-78
2023/09/16 05:06:05;;;;;;;9.32;7.80;;;;;;;15.09;100.00;100622.59;5075251;28;20040;-78
2023/09/16 05:08:33;;;;;;;9.65;7.57;;;;;;;15.12;100.00;100627.50;5076771;28;20124;-78
2023/09/16 05:11:00;;;;;;;8.60;7.68;;;;;;;15.10;100.00;100634.78;5075334;28;20094;-78
2023/09/16 05:13:28;;;;;;;9.80;7.40;;;;;;;15.13;100.00;100618.56;5074884;28;20080;-78
2023/09/16 05:15:55;;;;;;;9.45;7.32;;;;;;;15.12;100.00;100623.03;5076395;28;20509;-79
2023/09/16 05:18:21;;;;;;;11.68;7.80;;;;;;;15.11;100.00;100615.31;5074205;28;20429;-78
2023/09/16 05:20:51;;;;;;;9.70;7.55;;;;;;;15.14;100.00;100615.75;5073741;28;20129;-78
2023/09/16 05:23:18;;;;;;;8.35;7.10;;;;;;;15.15;100.00;100611.28;5080657;28;20112;-79
2023/09/16 05:25:49;;;;;;;9.60;7.70;;;;;;;15.25;100.00;100619.72;5076460;28;20080;-79
2023/09/16 05:28:16;;;;;;;9.80;8.02;;;;;;;15.29;100.00;100626.25;5077984;28;20084;-79
2023/09/16 05:30:43;;;;;;;12.02;8.30;;;;;;;15.38;100.00;100627.78;5076885;28;20052;-79
2023/09/16 05:33:10;;;;;;;9.48;7.90;;;;;;;15.36;100.00;100619.22;5077150;28;20054;-79
2023/09/16 05:35:37;;;;;;;10.55;7.05;;;;;;;15.29;100.00;100623.63;5077588;28;20118;-79
2023/09/16 05:38:04;;;;;;;11.73;7.63;;;;;;;15.49;100.00;100623.84;5075297;28;20511;-77
2023/09/16 05:40:30;;;;;;;9.32;7.72;;;;;;;15.40;100.00;100625.75;5075128;28;20044;-78
2023/09/16 05:42:58;;;;;;;10.00;7.20;;;;;;;15.47;100.00;100624.03;5074515;28;20045;-78
2023/09/16 05:45:25;;;;;;;9.68;7.30;;;;;;;15.49;100.00;100608.81;5074127;28;20299;-78
2023/09/16 05:47:52;;;;;;;9.35;6.97;;;;;;;15.47;100.00;100616.09;5074742;28;20147;-78
2023/09/16 05:50:18;;;;;;;9.57;7.60;;;;;;;15.54;100.00;100622.25;5075635;28;20148;-78
2023/09/16 05:52:45;;;;;;;8.40;7.28;;;;;;;15.55;100.00;100613.34;5074821;28;20132;-78
2023/09/16 05:55:12;;;;;;;13.20;7.72;;;;;;;15.62;100.00;100623.16;5072953;28;20131;-78
2023/09/16 05:57:38;;;;;;;8.63;7.07;;;;;;;15.85;100.00;100614.03;5076223;28;20059;-79
2023/09/16 06:00:08;;;;;;;9.23;7.57;;;;;;;15.86;100.00;100620.13;5075385;28;20083;-78
2023/09/16 06:02:38;;;;;;;8.90;6.60;;;;;;;15.95;100.00;100618.19;5076520;28;20084;-78
2023/09/16 06:05:06;;;;;;;10.27;7.55;;;;;;;16.08;100.00;100620.88;5075613;28;20048;-78
2023/09/16 06:07:33;;;;;;;8.15;6.82;;;;;;;16.18;100.00;100618.75;5076503;28;20108;-79
2023/09/16 06:09:59;;;;;;;9.90;7.28;;;;;;;16.20;100.00;100617.53;5081409;28;20055;-78
2023/09/16 06:12:26;;;;;;;10.80;7.47;;;;;;;16.34;100.00;100622.91;5076403;28;20155;-79
2023/09/16 06:14:53;;;;;;;10.95;7.05;;;;;;;16.40;100.00;100625.59;5079819;28;20254;-78
2023/09/16 06:17:22;;;;;;;8.90;7.00;;;;;;;17.14;98.70;100624.94;5075085;28;20529;-78
2023/09/16 06:19:52;;;;;;;9.50;6.95;;;;;;;17.94;95.47;100615.31;5075498;28;20049;-78
2023/09/16 06:22:19;;;;;;;9.68;6.35;;;;;;;18.89;91.34;100609.41;5076444;28;20056;-79
2023/09/16 06:24:45;;;;;;;7.85;6.60;;;;;;;19.12;86.87;100588.47;5078111;28;20079;-78
2023/09/16 06:27:14;;;;;;;10.32;6.50;;;;;;;19.26;85.76;100588.38;5074668;28;20131;-79
2023/09/16 06:29:40;;;;;;;7.45;5.70;;;;;;;19.57;83.83;100574.31;5075938;28;20056;-79
2023/09/16 06:32:07;;;;;;;9.60;6.40;;;;;;;19.79;83.25;100584.34;5075692;28;20239;-78
2023/09/16 06:34:35;;;;;;;8.45;6.18;;;;;;;20.89;80.91;100584.38;5075852;28;20064;-78
2023/09/16 06:37:02;;;;;;;6.43;5.72;;;;;;;20.88;79.07;100583.56;5073080;28;20079;-78
2023/09/16 06:39:29;;;;;;;7.45;5.60;;;;;;;21.64;77.35;100581.28;5075537;28;20131;-79
2023/09/16 06:41:56;;;;;;;7.28;6.07;;;;;;;21.62;76.47;100583.38;5073090;28;20061;-78
2023/09/16 06:44:22;;;;;;;8.40;5.95;;;;;;;21.99;76.38;100590.09;5071898;28;20151;-78
2023/09/16 06:46:49;;;;;;;10.60;6.20;;;;;;;22.13;75.46;100580.88;5073319;28;20429;-79
2023/09/16 06:49:17;;;;;;;7.05;5.75;;;;;;;22.27;74.54;100591.25;5071405;28;20136;-79
2023/09/16 06:51:45;;;;;;;6.88;5.28;;;;;;;22.45;73.56;100583.94;5073515;28;20507;-79
2023/09/16 06:54:12;;;;;;;7.70;5.68;;;;;;;21.86;74.67;100587.66;5075083;28;20075;-78
2023/09/16 06:56:38;;;;;;;6.47;5.38;;;;;;;22.24;74.31;100583.72;5073843;28;20049;-78
2023/09/16 06:59:05;;;;;;;6.40;5.68;;;;;;;22.59;73.12;100579.16;5073248;28;20135;-79
2023/09/16 07:01:31;;;;;;;5.93;5.07;;;;;;;22.00;74.40;100590.91;5072939;28;20597;-79
2023/09/16 07:03:58;;;;;;;7.10;5.50;;;;;;;21.97;73.81;100576.19;5072220;28;20052;-78
2023/09/16 07:06:25;;;;;;;9.35;5.78;;;;;;;21.88;73.62;100577.59;5072929;28;20063;-79
2023/09/16 07:08:53;;;;;;;9.80;5.00;;;;;;;22.50;73.87;100591.22;5073606;28;20087;-79
2023/09/16 07:11:20;;;;;;;7.93;5.05;;;;;;;22.07;73.34;100589.78;5072981;28;20143;-79
2023/09/16 07:13:46;;;;;;;6.68;5.68;;;;;;;22.47;71.89;100573.03;5076207;28;20048;-80
2023/09/16 07:16:13;;;;;;;6.38;5.50;;;;;;;21.80;73.72;100596.56;5078109;28;20131;-79
2023/09/16 07:18:40;;;;;;;6.68;5.43;;;;;;;21.89;73.19;100583.72;5073151;28;20417;-78
2023/09/16 07:21:07;;;;;;;6.95;5.40;;;;;;;22.18;73.45;100588.16;5073548;28;20472;-78
2023/09/16 07:23:34;;;;;;;8.55;5.57;;;;;;;21.84;74.20;100585.22;5067135;28;20059;-78
2023/09/16 07:26:02;;;;;;;5.97;5.38;;;;;;;21.83;74.13;100593.44;5074244;28;20071;-79
2023/09/16 07:28:29;;;;;;;5.55;4.97;;;;;;;21.76;74.33;100590.88;5074167;28;20135;-78
2023/09/16 07:30:56;;;;;;;7.53;5.72;;;;;;;21.43;74.07;100590.63;5083350;28;20094;-79
2023/09/16 07:33:23;;;;;;;6.20;5.47;;;;;;;21.34;74.74;100584.81;5071951;28;20139;-79
2023/09/16 07:35:51;;;;;;;6.18;5.53;;;;;;;21.57;74.14;100596.56;5075760;28;20044;-79
2023/09/16 07:38:18;;;;;;;7.82;5.50;;;;;;;21.52;74.83;100600.72;5077615;28;20064;-79
2023/09/16 07:40:44;;;;;;;7.60;5.40;;;;;;;22.10;73.72;100585.84;5077349;28;20072;-80
2023/09/16 07:43:12;;;;;;;7.40;5.60;;;;;;;22.18;72.33;100575.66;5075996;28;20080;-80
2023/09/16 07:45:39;;;;;;;7.20;5.63;;;;;;;22.46;72.14;100577.56;5076751;28;20127;-78
2023/09/16 07:48:07;;;;;;;11.57;6.03;;;;;;;22.59;71.45;100576.50;5076367;28;20131;-78
2023/09/16 07:50:34;;;;;;;6.88;5.25;;;;;;;22.74;71.17;100587.44;5076858;28;20044;-79
2023/09/16 07:53:00;;;;;;;6.45;5.47;;;;;;;22.48;71.05;100580.00;5077063;28;20569;-78
2023/09/16 07:55:27;;;;;;;6.60;5.90;;;;;;;22.31;72.09;100592.41;5075524;28;20052;-79
2023/09/16 07:57:54;;;;;;;6.85;5.55;;;;;;;22.71;70.97;100587.09;5076565;28;20063;-78
2023/09/16 08:00:21;;;;;;;8.05;6.00;;;;;;;22.88;71.77;100597.88;5075359;28;20182;-79
2023/09/16 08:02:48;;;;;;;8.40;5.95;;;;;;;22.70;70.53;100572.16;5076769;28;20521;-79
2023/09/16 08:05:15;;;;;;;7.07;5.45;;;;;;;22.75;71.08;100583.72;5076448;28;20450;-79
2023/09/16 08:07:41;;;;;;;6.28;5.47;;;;;;;22.41;71.14;100592.63;5077126;28;20065;-79
2023/09/16 08:10:08;;;;;;;9.02;5.75;;;;;;;22.29;72.14;100599.84;5078475;28;20091;-80
2023/09/16 08:12:35;;;;;;;5.97;5.38;;;;;;;22.52;71.76;100591.81;5080957;28;20119;-79
2023/09/16 08:15:03;;;;;;;7.78;5.28;;;;;;;22.16;72.29;100591.06;5081600;28;20052;-79
2023/09/16 08:17:30;;;;;;;7.70;5.88;;;;;;;22.70;71.20;100580.97;5081677;28;20494;-79
2023/09/16 08:19:57;;;;;;;7.35;5.65;;;;;;;22.43;71.47;100586.03;5082733;28;20079;-79
2023/09/16 08:22:24;;;;;;;7.18;5.93;;;;;;;22.34;71.46;100589.28;5083234;28;20076;-79
2023/09/16 08:24:50;;;;;;;8.77;6.22;;;;;;;22.42;71.66;100595.06;5083955;28;20154;-79
2023/09/16 08:27:19;;;;;;;7.00;6.00;;;;;;;22.32;71.63;100599.38;5085040;28;20087;-78
2023/09/16 08:29:45;;;;;;;5.95;5.35;;;;;;;22.29;72.25;100605.16;5087229;28;20052;-80
2023/09/16 08:32:12;;;;;;;7.03;6.20;;;;;;;22.34;72.51;100597.28;5092553;28;20044;-79
2023/09/16 08:34:40;;;;;;;7.00;5.75;;;;;;;22.69;71.75;100598.00;5087867;28;20087;-79
2023/09/16 08:37:06;;;;;;;8.88;5.90;;;;;;;23.17;70.90;100580.78;5090090;28;20066;-80
2023/09/16 08:39:33;;;;;;;8.73;6.35;;;;;;;23.06;70.69;100595.03;5087669;28;20098;-79
2023/09/16 08:42:03;;;;;;;9.10;5.88;;;;;;;22.57;71.63;100597.25;5087381;28;20044;-79
2023/09/16 08:44:33;;;;;;;10.05;5.95;;;;;;;22.44;72.18;100600.16;5086458;28;20174;-79
2023/09/16 08:47:05;;;;;;;6.63;5.85;;;;;;;22.99;71.71;100594.34;5077540;28;20116;-81
2023/09/16 08:49:39;;;;;;;8.10;6.18;;;;;;;23.08;70.58;100587.59;5077031;28;20059;-80
2023/09/16 08:52:10;;;;;;;8.00;5.90;;;;;;;22.75;71.58;100601.59;5078134;28;20055;-79
2023/09/16 08:54:42;;;;;;;8.63;6.30;;;;;;;22.75;71.86;100606.94;5076235;28;20375;-80
2023/09/16 08:57:10;;;;;;;9.07;6.10;;;;;;;23.29;71.97;100610.91;5075821;28;20075;-80
2023/09/16 08:59:38;;;;;;;7.80;6.00;;;;;;;23.39;71.08;100605.75;5075060;28;20045;-79
2023/09/16 09:02:06;;;;;;;7.00;6.30;;;;;;;23.61;69.54;100589.06;5073314;28;20049;-79
2023/09/16 09:04:34;;;;;;;7.68;6.38;;;;;;;23.33;71.85;100612.06;5073934;28;20074;-79
2023/09/16 09:07:01;;;;;;;10.15;5.90;;;;;;;23.18;70.90;100601.09;5076580;28;20104;-80
2023/09/16 09:09:30;;;;;;;7.22;6.35;;;;;;;23.27;71.68;100618.34;5078995;28;20135;-79
2023/09/16 09:11:59;;;;;;;9.48;6.57;;;;;;;23.43;71.95;100617.56;5079226;28;20048;-81
2023/09/16 09:14:27;;;;;;;8.93;6.32;;;;;;;22.80;72.26;100607.88;5078990;28;20116;-79
2023/09/16 09:16:57;;;;;;;7.38;6.00;;;;;;;23.21;72.44;100613.16;5083088;28;20048;-79
2023/09/16 09:19:24;;;;;;;6.80;6.10;;;;;;;23.11;72.09;100605.81;5078817;28;20109;-80
2023/09/16 09:21:52;;;;;;;9.23;6.15;;;;;;;23.67;72.53;100612.09;5086218;28;20075;-79
2023/09/16 09:24:19;;;;;;;8.15;6.20;;;;;;;24.21;70.95;100601.69;5079023;28;20091;-79
2023/09/16 09:26:47;;;;;;;11.88;6.30;;;;;;;24.47;70.26;100590.31;5081120;28;20107;-80
2023/09/16 09:29:13;;;;;;;8.45;6.25;;;;;;;24.54;68.75;100585.59;5081226;28;20518;-80
2023/09/16 09:34:53;;;;;;;10.38;6.25;;;;;;;23.39;71.29;100615.63;5110071;28;20158;-83
2023/09/16 09:37:26;;;;;;;8.68;6.40;;;;;;;24.07;71.57;100618.09;5114636;28;20088;-84
2023/09/16 09:40:12;;;;;;;7.85;6.50;;;;;;;24.23;69.86;100605.72;5119466;28;20047;-82
2023/09/16 09:42:41;;;;;;;7.35;6.55;;;;;;;24.31;71.19;100609.88;5112346;28;20048;-82
2023/09/16 09:45:22;;;;;;;7.28;6.28;;;;;;;24.63;71.21;100626.06;5123133;28;20115;-82
2023/09/16 09:47:53;;;;;;;8.00;6.55;;;;;;;24.61;69.78;100607.59;5121914;28;20058;-81
2023/09/16 09:53:17;;;;;;;;;;;;;;;;;;;;;
2023/09/16 09:55:52;;;;;;;8.25;6.60;;;;;;;24.95;69.47;100610.13;5115472;28;19953;-79
2023/09/16 09:58:33;;;;;;;10.30;7.10;;;;;;;24.84;69.89;100611.06;5113161;28;20058;-83
2023/09/16 10:01:00;;;;;;;10.65;6.85;;;;;;;24.96;69.40;100609.09;5107891;28;20066;-85
2023/09/16 10:03:28;;;;;;;8.75;7.63;;;;;;;24.66;68.37;100586.25;5118650;28;20048;-81
2023/09/16 10:06:01;;;;;;;8.27;7.13;;;;;;;24.13;70.12;100621.63;5113905;28;20297;-82
2023/09/16 10:08:29;;;;;;;9.73;7.45;;;;;;;24.03;70.72;100622.31;5116450;28;20052;-79
2023/09/16 10:11:32;;;;;;;10.75;7.18;;;;;;;24.42;71.19;100619.66;5105115;28;20048;-83
2023/09/16 10:17:26;;;;;;;9.35;6.70;;;;;;;24.96;69.60;100609.09;5108489;28;20048;-80
2023/09/16 10:20:13;;;;;;;15.05;8.85;;;;;;;25.10;68.85;100596.91;5101688;28;20044;-77
2023/09/16 10:22:42;;;;;;;10.18;7.43;;;;;;;24.59;69.10;100604.34;5109795;28;20107;-82
2023/09/16 10:25:17;;;;;;;11.27;7.93;;;;;;;24.33;69.99;100599.75;5123423;28;20048;-80
2023/09/16 10:27:56;;;;;;;10.52;7.30;;;;;;;24.67;68.93;100595.09;5114534;28;20417;-81
2023/09/16 10:30:31;;;;;;;9.10;7.30;;;;;;;24.51;69.01;100590.63;5086318;28;20135;-80
2023/09/16 10:33:00;;;;;;;9.07;7.22;;;;;;;24.88;69.66;100598.81;5104533;28;20059;-82
2023/09/16 10:35:30;;;;;;;9.18;7.32;;;;;;;24.89;68.94;100608.47;5111736;28;20131;-81
2023/09/16 10:38:01;;;;;;;9.77;7.00;;;;;;;25.03;68.59;100594.47;5118174;28;20047;-81
2023/09/16 10:40:28;;;;;;;9.52;6.57;;;;;;;25.34;69.68;100619.66;5121602;28;20063;-83
2023/09/16 10:42:55;;;;;;;12.73;6.97;;;;;;;25.19;68.80;100608.78;5115130;28;20074;-81
2023/09/16 10:45:22;;;;;;;10.38;6.93;;;;;;;25.42;68.80;100605.81;5117711;28;20075;-79
2023/09/16 10:47:50;;;;;;;9.05;7.40;;;;;;;25.28;68.53;100606.47;5125614;28;20070;-81
2023/09/16 10:50:21;;;;;;;12.63;7.13;;;;;;;24.91;68.67;100598.31;5122175;28;20055;-80
2023/09/16 10:52:51;;;;;;;12.35;6.88;;;;;;;25.17;68.67;100610.09;5118220;28;20043;-83
2023/09/16 10:55:27;;;;;;;7.75;6.95;;;;;;;25.04;68.96;100600.63;5108571;28;20130;-79
2023/09/16 10:58:01;;;;;;;8.00;7.13;;;;;;;25.25;69.32;100612.34;5115742;28;20134;-82
2023/09/16 11:00:33;;;;;;;8.88;7.60;;;;;;;25.22;67.65;100583.38;5114876;28;20108;-82
2023/09/16 11:03:01;;;;;;;8.65;7.28;;;;;;;25.49;67.94;100591.41;5120820;28;20107;-83
2023/09/16 11:05:30;;;;;;;9.40;6.85;;;;;;;25.55;67.81;100587.69;5112629;28;20123;-81
2023/09/16 11:07:58;;;;;;;7.57;6.85;;;;;;;25.84;67.36;100588.22;5121408;28;20051;-80
2023/09/16 11:10:25;;;;;;;7.97;7.18;;;;;;;26.01;65.91;100578.91;5118167;28;20072;-81
2023/09/16 11:12:52;;;;;;;7.57;6.43;;;;;;;26.06;66.91;100581.63;5116764;28;20046;-81
2023/09/16 11:15:19;;;;;;;9.73;6.80;;;;;;;26.15;66.50;100578.47;5118188;28;20050;-82
2023/09/16 11:17:46;;;;;;;8.85;7.00;;;;;;;25.58;66.96;100579.94;5121391;28;20075;-80
2023/09/16 11:20:14;;;;;;;9.13;7.10;;;;;;;25.51;66.69;100573.19;5112560;28;20064;-82
2023/09/16 11:22:47;;;;;;;9.50;7.15;;;;;;;25.56;66.23;100584.75;5115098;28;20171;-79
2023/09/16 11:25:14;;;;;;;8.00;6.75;;;;;;;26.10;66.01;100577.38;5126692;28;20057;-81
2023/09/16 11:27:41;;;;;;;10.77;6.95;;;;;;;26.18;65.84;100569.91;5125090;28;20082;-83
2023/09/16 11:30:12;;;;;;;9.75;7.40;;;;;;;26.34;66.01;100567.06;5119950;28;20558;-83
2023/09/16 11:32:41;;;;;;;7.65;6.85;;;;;;;25.97;65.80;100566.31;5116255;28;20059;-82